createdAt,value
2023-03-06T00:01:31.152Z,96935.38
2023-03-06T00:06:52.086Z,96932.84
2023-03-06T00:12:12.900Z,96922.59
2023-03-06T00:17:33.772Z,96925.19
2023-03-06T00:22:56.055Z,96920.03
2023-03-06T00:28:17.980Z,96916.22
2023-03-06T00:33:38.625Z,96913.63
2023-03-06T00:38:59.356Z,96910.53
2023-03-06T00:44:20.277Z,96902.63
2023-03-06T00:49:41.540Z,96890.16
2023-03-06T00:55:02.650Z,96888.31
2023-03-06T01:00:23.554Z,96877.88
2023-03-06T01:05:44.285Z,96872.59
2023-03-06T01:11:06.075Z,96864.69
2023-03-06T01:16:26.936Z,96860.63
2023-03-06T01:21:47.730Z,96852.03
2023-03-06T01:27:08.429Z,96853.84
2023-03-06T01:32:29.059Z,96851.63
2023-03-06T01:37:49.823Z,96842.25
2023-03-06T01:43:31.735Z,96846.47
2023-03-06T01:48:58.235Z,96833.28
2023-03-06T01:54:27.255Z,96835.69
2023-03-06T01:59:48.777Z,96824.69
2023-03-06T02:05:09.986Z,96825.28
2023-03-06T02:10:31.028Z,96819.97
2023-03-06T02:15:51.679Z,96814.31
2023-03-06T02:21:20.346Z,96808.09
2023-03-06T02:26:41.278Z,96807.91
2023-03-06T02:32:02.538Z,96799.66
2023-03-06T02:37:24.470Z,96796.00
2023-03-06T02:42:49.946Z,96794.91
2023-03-06T02:48:12.707Z,96789.25
2023-03-06T02:53:33.429Z,96793.44
2023-03-06T02:58:54.172Z,96788.31
2023-03-06T03:04:15.397Z,96788.31
2023-03-06T03:09:37.318Z,96784.09
2023-03-06T03:14:59.988Z,96781.38
2023-03-06T03:20:22.390Z,96773.31
2023-03-06T03:25:44.358Z,96764.91
2023-03-06T03:31:06.477Z,96758.31
2023-03-06T03:36:28.612Z,96758.88
2023-03-06T03:41:49.841Z,96747.72
2023-03-06T03:47:10.895Z,96751.78
2023-03-06T03:52:32.093Z,96740.28
2023-03-06T03:57:53.364Z,96745.06
2023-03-06T04:03:14.090Z,96729.88
2023-03-06T04:08:38.516Z,96727.88
2023-03-06T04:13:59.746Z,96733.91
2023-03-06T04:19:20.369Z,96719.81
2023-03-06T04:24:41.083Z,96721.09
2023-03-06T04:30:02.954Z,96716.16
2023-03-06T04:35:25.211Z,96710.16
2023-03-06T04:40:52.648Z,96707.19
2023-03-06T04:46:13.364Z,96713.81
2023-03-06T04:51:37.752Z,96707.41
2023-03-06T04:56:58.901Z,96699.19
2023-03-06T05:02:20.726Z,96689.84
2023-03-06T05:07:41.754Z,96691.66
2023-03-06T05:13:02.727Z,96691.84
2023-03-06T05:18:23.818Z,96683.78
2023-03-06T05:23:44.841Z,96680.84
2023-03-06T05:29:05.638Z,96681.19
2023-03-06T05:34:26.475Z,96683.75
2023-03-06T05:39:47.372Z,96677.50
2023-03-06T05:45:08.878Z,96687.38
2023-03-06T05:50:30.173Z,96678.88
2023-03-06T05:55:57.445Z,96683.59
2023-03-06T06:01:19.360Z,96688.63
2023-03-06T06:06:40.268Z,96691.47
2023-03-06T06:12:02.655Z,96685.44
2023-03-06T06:17:23.570Z,96683.25
2023-03-06T06:22:44.572Z,96688.75
2023-03-06T06:28:05.757Z,96690.22
2023-03-06T06:33:26.729Z,96693.63
2023-03-06T06:38:47.871Z,96683.78
2023-03-06T06:44:11.256Z,96691.66
2023-03-06T06:49:32.778Z,96671.03
2023-03-06T06:54:53.604Z,96685.63
2023-03-06T07:00:15.258Z,96684.22
2023-03-06T07:05:35.715Z,96679.97
2023-03-06T07:10:57.051Z,96674.38
2023-03-06T07:16:18.168Z,96673.94
2023-03-06T07:21:39.295Z,96672.16
2023-03-06T07:27:00.324Z,96666.28
2023-03-06T07:32:21.391Z,96659.75
2023-03-06T07:37:42.863Z,96659.75
2023-03-06T07:43:18.386Z,96663.53
2023-03-06T07:48:47.413Z,96673.44
2023-03-06T07:54:08.419Z,96666.09
2023-03-06T07:59:29.112Z,96659.13
2023-03-06T08:04:53.684Z,96664.94
2023-03-06T08:10:15.038Z,96659.13
2023-03-06T08:15:35.781Z,96660.44
2023-03-06T08:21:06.359Z,96664.19
2023-03-06T08:26:29.164Z,96654.25
2023-03-06T08:31:50.035Z,96647.97
2023-03-06T08:37:10.885Z,96653.59
2023-03-06T08:42:32.218Z,96662.06
2023-03-06T08:47:53.047Z,96657.13
2023-03-06T08:53:13.946Z,96656.56
2023-03-06T08:58:34.994Z,96663.91
2023-03-06T09:03:57.719Z,96660.91
2023-03-06T09:09:18.921Z,96656.59
2023-03-06T09:14:40.000Z,96656.22
2023-03-06T09:20:00.713Z,96665.69
2023-03-06T09:25:23.309Z,96655.72
2023-03-06T09:30:44.030Z,96660.47
2023-03-06T09:36:05.710Z,96650.25
2023-03-06T09:41:31.069Z,96669.25
2023-03-06T09:47:00.977Z,96640.13
2023-03-06T09:52:33.938Z,96634.59
2023-03-06T09:57:56.191Z,96637.16
2023-03-06T10:03:39.713Z,96643.91
2023-03-06T10:09:41.487Z,96632.09
2023-03-06T10:15:07.291Z,96636.00
2023-03-06T10:20:49.702Z,96641.44
2023-03-06T10:26:15.717Z,96629.41
2023-03-06T10:31:36.427Z,96638.00
2023-03-06T10:36:58.631Z,96627.91
2023-03-06T10:42:19.471Z,96626.22
2023-03-06T10:47:40.410Z,96641.03
2023-03-06T10:53:10.757Z,96642.72
2023-03-06T10:58:32.571Z,96629.00
2023-03-06T11:03:54.222Z,96622.47
2023-03-06T11:09:16.158Z,96616.28
2023-03-06T11:14:37.045Z,96604.47
2023-03-06T11:20:17.678Z,96598.09
2023-03-06T11:25:43.910Z,96592.84
2023-03-06T11:31:18.582Z,96594.56
2023-03-06T11:36:48.028Z,96600.81
2023-03-06T11:42:42.967Z,96583.59
2023-03-06T11:48:13.937Z,96571.22
2023-03-06T11:53:39.197Z,96573.28
2023-03-06T11:59:18.845Z,96560.72
2023-03-06T12:05:07.244Z,96558.66
2023-03-06T12:10:31.782Z,96541.53
2023-03-06T12:16:04.790Z,96535.09
2023-03-06T12:21:37.759Z,96535.19
2023-03-06T12:27:24.859Z,96526.75
2023-03-06T12:33:10.418Z,96525.91
2023-03-06T12:38:44.148Z,96528.72
2023-03-06T12:44:26.368Z,96519.75
2023-03-06T12:50:17.218Z,96517.47
2023-03-06T12:55:46.301Z,96515.91
2023-03-06T13:01:28.693Z,96519.41
2023-03-06T13:07:04.639Z,96512.22
2023-03-06T13:12:47.203Z,96510.75
2023-03-06T13:18:23.390Z,96502.81
2023-03-06T13:23:48.470Z,96498.16
2023-03-06T13:29:36.966Z,96513.34
2023-03-06T13:34:58.259Z,96502.09
2023-03-06T13:40:27.283Z,96492.59
2023-03-06T13:45:48.189Z,96481.28
2023-03-06T13:51:23.048Z,96479.28
2023-03-06T13:56:49.972Z,96471.75
2023-03-06T14:02:37.201Z,96464.41
2023-03-06T14:08:07.833Z,96474.66
2023-03-06T14:13:41.845Z,96467.03
2023-03-06T14:19:15.678Z,96469.22
2023-03-06T14:24:38.330Z,96471.50
2023-03-06T14:30:07.328Z,96468.56
2023-03-06T14:35:32.338Z,96474.03
2023-03-06T14:40:53.843Z,96465.09
2023-03-06T14:46:19.977Z,96465.00
2023-03-06T14:51:46.062Z,96460.19
2023-03-06T14:57:08.985Z,96473.88
2023-03-06T15:02:33.023Z,96485.19
2023-03-06T15:07:55.308Z,96492.59
2023-03-06T15:13:21.508Z,96492.22
2023-03-06T15:19:00.450Z,96498.88
2023-03-06T15:24:35.181Z,96499.44
2023-03-06T15:30:34.070Z,96501.94
2023-03-06T15:35:57.607Z,96503.22
2023-03-06T15:41:23.196Z,96507.41
2023-03-06T15:46:44.981Z,96504.38
2023-03-06T15:52:07.040Z,96505.53
2023-03-06T15:57:31.634Z,96485.81
2023-03-06T16:02:53.394Z,96495.75
2023-03-06T16:08:15.482Z,96489.09
2023-03-06T16:13:36.854Z,96483.41
2023-03-06T16:18:58.155Z,96485.00
2023-03-06T16:24:19.334Z,96477.16
2023-03-06T16:29:40.329Z,96481.22
2023-03-06T16:35:01.515Z,96490.25
2023-03-06T16:40:24.947Z,96495.66
2023-03-06T16:45:46.104Z,96490.03
2023-03-06T16:51:07.516Z,96496.16
2023-03-06T16:56:29.124Z,96498.47
2023-03-06T17:01:50.169Z,96505.75
2023-03-06T17:07:11.643Z,96511.53
2023-03-06T17:12:32.545Z,96515.16
2023-03-06T17:17:53.690Z,96516.31
2023-03-06T17:23:14.562Z,96516.16
2023-03-06T17:28:36.468Z,96522.81
2023-03-06T17:34:00.574Z,96521.34
2023-03-06T17:39:21.411Z,96528.44
2023-03-06T17:44:42.653Z,96535.53
2023-03-06T17:50:04.145Z,96537.09
2023-03-06T17:55:27.131Z,96537.53
2023-03-06T18:00:48.433Z,96532.31
2023-03-06T18:06:09.594Z,96526.06
2023-03-06T18:11:30.733Z,96528.56
2023-03-06T18:16:51.786Z,96534.09
2023-03-06T18:22:12.772Z,96535.25
2023-03-06T18:27:34.292Z,96539.28
2023-03-06T18:32:55.269Z,96547.72
2023-03-06T18:38:16.561Z,96544.06
2023-03-06T18:43:37.675Z,96545.84
2023-03-06T18:48:58.486Z,96542.38
2023-03-06T18:54:19.360Z,96547.06
2023-03-06T18:59:40.077Z,96549.97
2023-03-06T19:05:00.839Z,96561.72
2023-03-06T19:10:22.570Z,96561.00
2023-03-06T19:15:48.119Z,96546.63
2023-03-06T19:21:14.265Z,96552.00
2023-03-06T19:26:35.903Z,96544.00
2023-03-06T19:31:57.461Z,96547.09
2023-03-06T19:37:18.754Z,96541.88
2023-03-06T19:42:39.710Z,96543.59
2023-03-06T19:48:01.003Z,96551.13
2023-03-06T19:53:23.151Z,96538.50
2023-03-06T19:58:43.973Z,96550.69
2023-03-06T20:04:04.779Z,96555.34
2023-03-06T20:09:26.019Z,96551.69
2023-03-06T20:14:47.233Z,96551.53
2023-03-06T20:20:09.349Z,96552.13
2023-03-06T20:25:30.764Z,96551.41
2023-03-06T20:30:51.740Z,96549.22
2023-03-06T20:36:32.787Z,96556.75
2023-03-06T20:41:53.866Z,96549.19
2023-03-06T20:47:14.688Z,96565.41
2023-03-06T20:52:35.526Z,96565.66
2023-03-06T20:57:56.578Z,96559.22
2023-03-06T21:03:17.376Z,96547.31
2023-03-06T21:08:38.100Z,96550.63
2023-03-06T21:13:58.813Z,96558.19
2023-03-06T21:19:20.162Z,96553.38
2023-03-06T21:24:41.463Z,96549.41
2023-03-06T21:30:02.458Z,96550.88
2023-03-06T21:35:23.762Z,96542.59
2023-03-06T21:40:45.518Z,96529.56
2023-03-06T21:46:07.039Z,96541.75
2023-03-06T21:51:28.448Z,96535.13
2023-03-06T21:56:49.713Z,96536.88
2023-03-06T22:02:10.768Z,96531.38
2023-03-06T22:07:34.961Z,96520.91
2023-03-06T22:12:55.885Z,96522.53
2023-03-06T22:18:16.859Z,96527.63
2023-03-06T22:23:41.928Z,96517.75
2023-03-06T22:29:05.366Z,96520.09
2023-03-06T22:34:26.848Z,96516.47
2023-03-06T22:39:47.876Z,96519.38
2023-03-06T22:45:09.414Z,96517.50
2023-03-06T22:50:32.504Z,96516.03
2023-03-06T22:55:53.579Z,96514.31
2023-03-06T23:01:16.505Z,96510.81
2023-03-06T23:06:39.703Z,96508.25
2023-03-06T23:12:00.645Z,96511.25
2023-03-06T23:17:40.088Z,96511.94
2023-03-06T23:23:19.839Z,96514.06
2023-03-06T23:28:40.893Z,96506.06
2023-03-06T23:34:02.505Z,96499.50
2023-03-06T23:39:23.853Z,96507.91
2023-03-06T23:44:45.216Z,96498.34
2023-03-06T23:50:07.211Z,96495.91
2023-03-06T23:55:27.654Z,96497.78
